createdAt,value
2016-07-06T00:00:07.944Z,16.39
2016-07-06T00:01:21.673Z,16.38
2016-07-06T00:02:07.130Z,16.38
2016-07-06T00:03:06.773Z,16.42
2016-07-06T00:04:06.783Z,16.5
2016-07-06T00:05:06.778Z,16.5
2016-07-06T00:06:06.781Z,16.56
2016-07-06T00:07:06.783Z,16.53
2016-07-06T00:08:07.627Z,16.66
2016-07-06T00:09:07.171Z,16.61
2016-07-06T00:10:07.072Z,16.73
2016-07-06T00:11:06.870Z,16.73
2016-07-06T00:12:06.774Z,16.75
2016-07-06T00:13:06.773Z,16.75
2016-07-06T00:14:06.818Z,16.78
2016-07-06T00:15:06.766Z,16.79
2016-07-06T00:16:06.869Z,16.83
2016-07-06T00:17:06.757Z,16.82
2016-07-06T00:18:06.763Z,16.78
2016-07-06T00:19:06.761Z,16.76
2016-07-06T00:20:06.752Z,16.85
2016-07-06T00:21:06.755Z,16.94
2016-07-06T00:22:06.746Z,16.89
2016-07-06T00:23:06.752Z,16.86
2016-07-06T00:24:06.747Z,16.96
2016-07-06T00:25:06.730Z,16.91
2016-07-06T00:26:06.731Z,16.98
2016-07-06T00:27:06.736Z,16.93
2016-07-06T00:28:06.740Z,16.97
2016-07-06T00:29:06.739Z,16.98
2016-07-06T00:30:06.728Z,16.96
2016-07-06T00:31:06.741Z,16.96
2016-07-06T00:32:06.732Z,17.04
2016-07-06T00:33:08.438Z,17.01
2016-07-06T00:34:06.714Z,17.01
2016-07-06T00:35:06.716Z,17
2016-07-06T00:36:06.723Z,17.01
2016-07-06T00:37:06.728Z,17.01
2016-07-06T00:38:06.723Z,17.11
2016-07-06T00:39:06.720Z,17.04
2016-07-06T00:40:06.723Z,17.01
2016-07-06T00:41:06.706Z,17.04
2016-07-06T00:42:06.715Z,17.04
2016-07-06T00:43:06.707Z,17
2016-07-06T00:44:06.716Z,17.01
2016-07-06T00:45:08.635Z,17.03
2016-07-06T00:46:07.635Z,17
2016-07-06T00:47:07.013Z,17.01
2016-07-06T00:48:06.714Z,17.04
2016-07-06T00:49:07.582Z,17
2016-07-06T00:50:06.705Z,17
2016-07-06T00:51:06.707Z,16.98
2016-07-06T00:52:06.711Z,17.01
2016-07-06T00:53:06.712Z,17.01
2016-07-06T00:55:06.994Z,16.98
2016-07-06T00:56:08.522Z,17
2016-07-06T00:57:08.208Z,17.01
2016-07-06T00:58:06.859Z,16.98
2016-07-06T00:59:07.927Z,16.96
2016-07-06T01:00:06.719Z,16.98
2016-07-06T01:01:06.700Z,16.94
2016-07-06T01:02:06.697Z,16.96
2016-07-06T01:03:06.703Z,16.93
2016-07-06T01:04:06.697Z,16.96
2016-07-06T01:05:06.694Z,16.93
2016-07-06T01:06:06.684Z,16.97
2016-07-06T01:07:06.686Z,16.91
2016-07-06T01:08:06.687Z,16.93
2016-07-06T01:09:06.689Z,16.88
2016-07-06T01:10:07.286Z,16.91
2016-07-06T01:11:06.967Z,16.86
2016-07-06T01:12:06.900Z,16.93
2016-07-06T01:13:06.684Z,16.91
2016-07-06T01:14:06.733Z,16.78
2016-07-06T01:15:06.677Z,16.83
2016-07-06T01:16:06.658Z,16.83
2016-07-06T01:17:07.878Z,16.81
2016-07-06T01:18:07.710Z,16.83
2016-07-06T01:19:06.652Z,16.82
2016-07-06T01:20:06.677Z,16.75
2016-07-06T01:21:08.367Z,16.78
2016-07-06T01:22:06.919Z,16.76
2016-07-06T01:23:07.145Z,16.68
2016-07-06T01:24:06.710Z,16.71
2016-07-06T01:25:06.662Z,16.73
2016-07-06T01:26:08.359Z,16.71
2016-07-06T01:27:06.943Z,16.73
2016-07-06T01:28:07.047Z,16.7
2016-07-06T01:29:06.753Z,16.61
2016-07-06T01:31:07.230Z,16.67
2016-07-06T01:32:07.242Z,16.63
2016-07-06T01:33:06.642Z,16.61
2016-07-06T01:34:06.642Z,16.6
2016-07-06T01:35:06.651Z,16.58
2016-07-06T01:36:06.629Z,16.61
2016-07-06T01:37:06.634Z,16.53
2016-07-06T01:38:06.640Z,16.66
2016-07-06T01:39:06.641Z,16.52
2016-07-06T01:40:06.637Z,16.6
2016-07-06T01:41:06.636Z,16.49
2016-07-06T01:42:06.635Z,16.52
2016-07-06T01:43:06.632Z,16.6
2016-07-06T01:44:06.616Z,16.5
2016-07-06T01:45:06.629Z,16.5
2016-07-06T01:46:06.626Z,16.49
2016-07-06T01:47:06.622Z,16.5
2016-07-06T01:48:06.622Z,16.48
2016-07-06T01:49:06.625Z,16.52
2016-07-06T01:50:06.622Z,16.49
2016-07-06T01:51:06.615Z,16.49
2016-07-06T01:52:06.613Z,16.5
2016-07-06T01:53:06.601Z,16.48
2016-07-06T01:54:06.613Z,16.52
2016-07-06T01:55:06.605Z,16.5
2016-07-06T01:56:06.591Z,16.39
2016-07-06T01:57:06.589Z,16.39
2016-07-06T01:58:06.589Z,16.41
2016-07-06T01:59:06.603Z,16.41
2016-07-06T02:00:06.604Z,16.38
2016-07-06T02:01:06.599Z,16.35
2016-07-06T02:02:06.597Z,16.39
2016-07-06T02:03:07.588Z,16.34
2016-07-06T02:05:08.231Z,16.33
2016-07-06T02:06:08.584Z,16.3
2016-07-06T02:07:07.672Z,16.3
2016-07-06T02:08:06.714Z,16.23
2016-07-06T02:09:06.588Z,16.23
2016-07-06T02:10:06.567Z,16.21
2016-07-06T02:11:06.762Z,16.25
2016-07-06T02:12:06.587Z,16.15
2016-07-06T02:13:08.070Z,16.17
2016-07-06T02:14:07.874Z,16.11
2016-07-06T02:15:06.723Z,16.14
2016-07-06T02:16:06.572Z,16.15
2016-07-06T02:17:06.571Z,16.11
2016-07-06T02:18:07.091Z,16.14
2016-07-06T02:19:06.574Z,16.07
2016-07-06T02:20:06.574Z,16.11
2016-07-06T02:21:06.571Z,16.17
2016-07-06T02:22:06.564Z,16.09
2016-07-06T02:23:06.568Z,16.08
2016-07-06T02:24:06.560Z,16.07
2016-07-06T02:25:06.551Z,15.96
2016-07-06T02:26:06.559Z,16
2016-07-06T02:27:06.558Z,16
2016-07-06T02:28:06.550Z,15.96
2016-07-06T02:29:06.555Z,15.96
2016-07-06T02:30:06.539Z,15.96
2016-07-06T02:31:06.530Z,16
2016-07-06T02:32:06.530Z,15.89
2016-07-06T02:33:07.137Z,15.96
2016-07-06T02:34:06.531Z,15.9
2016-07-06T02:35:06.537Z,15.97
2016-07-06T02:36:07.219Z,15.83
2016-07-06T02:37:21.758Z,15.86
2016-07-06T02:38:06.780Z,15.76
2016-07-06T02:39:06.624Z,15.74
2016-07-06T02:40:06.523Z,15.83
2016-07-06T02:41:06.529Z,15.65
2016-07-06T02:42:06.524Z,15.69
2016-07-06T02:43:06.511Z,15.67
2016-07-06T02:44:06.514Z,15.62
2016-07-06T02:45:07.463Z,15.57
2016-07-06T02:46:06.487Z,15.57
2016-07-06T02:47:06.503Z,15.68
2016-07-06T02:48:06.481Z,15.68
2016-07-06T02:49:06.494Z,15.65
2016-07-06T02:50:06.486Z,15.65
2016-07-06T02:51:06.692Z,15.71
2016-07-06T02:52:06.491Z,15.72
2016-07-06T02:53:06.496Z,15.76
2016-07-06T02:54:06.486Z,15.67
2016-07-06T02:55:06.493Z,15.75
2016-07-06T02:56:06.480Z,15.65
2016-07-06T02:57:06.484Z,15.69
2016-07-06T02:58:06.477Z,15.74
2016-07-06T02:59:06.473Z,15.67
2016-07-06T03:00:06.481Z,15.72
2016-07-06T03:01:06.471Z,15.69
2016-07-06T03:02:06.471Z,15.69
2016-07-06T03:03:06.473Z,15.67
2016-07-06T03:04:06.470Z,15.64
2016-07-06T03:05:06.464Z,15.57
2016-07-06T03:06:06.462Z,15.72
2016-07-06T03:07:06.456Z,15.65
2016-07-06T03:08:06.447Z,15.64
2016-07-06T03:09:06.460Z,15.64
2016-07-06T03:10:06.443Z,15.59
2016-07-06T03:11:06.453Z,15.59
2016-07-06T03:12:06.444Z,15.53
2016-07-06T03:13:06.448Z,15.57
2016-07-06T03:14:06.480Z,15.51
2016-07-06T03:15:06.436Z,15.53
2016-07-06T03:16:06.425Z,15.6
2016-07-06T03:17:06.430Z,15.53
2016-07-06T03:18:06.412Z,15.51
2016-07-06T03:19:06.422Z,15.57
2016-07-06T03:20:06.415Z,15.56
2016-07-06T03:21:06.420Z,15.51
2016-07-06T03:22:07.291Z,15.59
2016-07-06T03:23:07.150Z,15.57
2016-07-06T03:24:06.626Z,15.56
2016-07-06T03:25:06.940Z,15.56
2016-07-06T03:26:06.972Z,15.53
2016-07-06T03:27:06.481Z,15.54
2016-07-06T03:28:06.414Z,15.56
2016-07-06T03:29:06.423Z,15.54
2016-07-06T03:30:06.398Z,15.59
2016-07-06T03:31:07.671Z,15.59
2016-07-06T03:32:08.003Z,15.54
2016-07-06T03:33:06.679Z,15.53
2016-07-06T03:34:08.533Z,15.56
2016-07-06T03:35:06.400Z,15.5
2016-07-06T03:36:06.389Z,15.6
2016-07-06T03:37:06.392Z,15.51
2016-07-06T03:38:06.390Z,15.53
2016-07-06T03:39:06.383Z,15.47
2016-07-06T03:40:06.391Z,15.5
2016-07-06T03:41:06.383Z,15.49
2016-07-06T03:42:06.384Z,15.38
2016-07-06T03:43:06.378Z,15.34
2016-07-06T03:44:06.372Z,15.32
2016-07-06T03:45:06.366Z,15.35
2016-07-06T03:46:06.376Z,15.32
2016-07-06T03:47:06.367Z,15.35
2016-07-06T03:48:06.343Z,15.25
2016-07-06T03:49:06.352Z,15.27
2016-07-06T03:50:06.348Z,15.28
2016-07-06T03:51:06.341Z,15.36
2016-07-06T03:52:06.357Z,15.35
2016-07-06T03:53:06.355Z,15.46
2016-07-06T03:54:07.104Z,15.49
2016-07-06T03:55:07.304Z,15.64
2016-07-06T03:57:06.348Z,16.04
2016-07-06T03:58:06.528Z,16.2
2016-07-06T03:59:06.326Z,16.66
2016-07-06T04:00:06.334Z,16.97
2016-07-06T04:01:06.319Z,17.38
2016-07-06T04:02:06.318Z,17.74
2016-07-06T04:03:06.991Z,18.12
2016-07-06T04:04:22.080Z,18.6
2016-07-06T04:05:06.333Z,18.85
2016-07-06T04:06:07.485Z,19.19
2016-07-06T04:07:06.335Z,19.43
2016-07-06T04:08:06.336Z,19.61
2016-07-06T04:09:06.334Z,19.66
2016-07-06T04:10:06.337Z,19.63
2016-07-06T04:11:06.331Z,19.66
2016-07-06T04:12:06.320Z,19.66
2016-07-06T04:13:06.930Z,19.5
2016-07-06T04:14:06.367Z,19.29
2016-07-06T04:15:06.334Z,19.14
2016-07-06T04:16:06.343Z,19
2016-07-06T04:17:06.335Z,18.87
2016-07-06T04:18:06.319Z,18.73
2016-07-06T04:19:06.325Z,18.6
2016-07-06T04:20:06.343Z,18.37
2016-07-06T04:21:06.348Z,18.26
2016-07-06T04:22:06.331Z,18.11
2016-07-06T04:23:06.334Z,18
2016-07-06T04:24:06.336Z,17.9
2016-07-06T04:25:06.333Z,17.82
2016-07-06T04:26:06.331Z,17.84
2016-07-06T04:27:06.322Z,17.71
2016-07-06T04:28:06.332Z,17.63
2016-07-06T04:29:06.311Z,17.64
2016-07-06T04:30:06.318Z,17.63
2016-07-06T04:31:06.316Z,17.49
2016-07-06T04:32:06.334Z,17.54
2016-07-06T04:33:06.344Z,17.36
2016-07-06T04:34:06.333Z,17.37
2016-07-06T04:35:06.327Z,17.25
2016-07-06T04:36:06.326Z,17.25
2016-07-06T04:37:06.331Z,17.19
2016-07-06T04:38:06.330Z,17.16
2016-07-06T04:39:06.331Z,17.15
2016-07-06T04:40:07.820Z,17.12
2016-07-06T04:41:07.573Z,17.18
2016-07-06T04:42:07.044Z,17.11
2016-07-06T04:43:06.411Z,17.08
2016-07-06T04:44:06.307Z,17.08
2016-07-06T04:45:06.316Z,16.98
2016-07-06T04:46:06.321Z,16.94
2016-07-06T04:47:06.585Z,16.91
2016-07-06T04:48:06.324Z,16.85
2016-07-06T04:50:06.922Z,16.81
2016-07-06T04:51:08.565Z,16.85
2016-07-06T04:52:08.283Z,16.86
2016-07-06T04:53:06.868Z,16.88
2016-07-06T04:54:06.328Z,16.91
2016-07-06T04:55:06.314Z,16.88
2016-07-06T04:56:06.310Z,16.96
2016-07-06T04:57:06.910Z,16.91
2016-07-06T04:58:06.294Z,16.97
2016-07-06T04:59:06.305Z,16.97
2016-07-06T05:00:06.317Z,16.94
2016-07-06T05:01:06.300Z,16.93
2016-07-06T05:02:06.297Z,16.81
2016-07-06T05:03:06.302Z,16.79
2016-07-06T05:04:06.294Z,16.78
2016-07-06T05:05:06.301Z,16.73
2016-07-06T05:06:06.288Z,16.73
2016-07-06T05:07:06.296Z,16.7
2016-07-06T05:08:06.305Z,16.68
2016-07-06T05:09:06.297Z,16.63
2016-07-06T05:10:06.305Z,16.6
2016-07-06T05:11:06.293Z,16.63
2016-07-06T05:12:06.289Z,16.45
2016-07-06T05:13:06.292Z,16.56
2016-07-06T05:14:06.291Z,16.61
2016-07-06T05:15:06.291Z,16.52
2016-07-06T05:16:06.293Z,16.52
2016-07-06T05:17:06.892Z,16.52
2016-07-06T05:18:06.289Z,16.6
2016-07-06T05:19:06.891Z,16.61
2016-07-06T05:20:06.284Z,16.58
2016-07-06T05:21:06.291Z,16.61
2016-07-06T05:22:06.286Z,16.63
2016-07-06T05:23:06.281Z,16.63
2016-07-06T05:24:06.280Z,16.66
2016-07-06T05:25:06.282Z,16.68
2016-07-06T05:26:06.274Z,16.75
2016-07-06T05:27:06.273Z,16.68
2016-07-06T05:28:06.271Z,16.71
2016-07-06T05:29:06.271Z,16.75
2016-07-06T05:30:06.276Z,16.89
2016-07-06T05:31:06.270Z,16.76
2016-07-06T05:32:06.269Z,16.82
2016-07-06T05:33:06.273Z,16.86
2016-07-06T05:34:06.260Z,16.85
2016-07-06T05:35:06.261Z,16.91
2016-07-06T05:36:06.880Z,16.97
2016-07-06T05:37:06.265Z,17.03
2016-07-06T05:38:06.262Z,16.98
2016-07-06T05:39:06.259Z,17.12
2016-07-06T05:40:06.260Z,17.15
2016-07-06T05:41:06.250Z,17.15
2016-07-06T05:42:06.264Z,17.12
2016-07-06T05:43:06.257Z,17.12
2016-07-06T05:44:06.263Z,17.21
2016-07-06T05:45:06.258Z,17.28
2016-07-06T05:46:06.255Z,17.3
2016-07-06T05:47:06.248Z,17.3
2016-07-06T05:48:06.847Z,17.37
2016-07-06T05:49:06.248Z,17.34
2016-07-06T05:50:06.249Z,17.4
2016-07-06T05:51:06.259Z,17.36
2016-07-06T05:52:06.248Z,17.3
2016-07-06T05:53:06.255Z,17.41
2016-07-06T05:54:06.252Z,17.38
2016-07-06T05:55:06.248Z,17.37
2016-07-06T05:56:06.242Z,17.4
2016-07-06T05:57:06.259Z,17.43
2016-07-06T05:58:07.805Z,17.41
2016-07-06T05:59:06.496Z,17.36
2016-07-06T06:00:08.876Z,17.34
2016-07-06T06:01:06.244Z,17.28
2016-07-06T06:02:06.563Z,17.19
2016-07-06T06:03:06.229Z,17.14
2016-07-06T06:04:06.351Z,17.19
2016-07-06T06:05:06.306Z,17.16
2016-07-06T06:06:06.236Z,17.11
2016-07-06T06:07:06.239Z,17.08
2016-07-06T06:08:08.197Z,16.97
2016-07-06T06:09:07.474Z,16.91
2016-07-06T06:10:08.687Z,16.94
2016-07-06T06:11:06.430Z,17
2016-07-06T06:12:21.124Z,17.03
2016-07-06T06:14:07.236Z,17.3
2016-07-06T06:15:06.968Z,17.41
2016-07-06T06:16:06.323Z,17.41
2016-07-06T06:17:06.832Z,17.41
2016-07-06T06:18:06.222Z,17.4
2016-07-06T06:19:06.229Z,17.43
2016-07-06T06:20:06.234Z,17.43
2016-07-06T06:21:06.826Z,17.49
2016-07-06T06:22:07.072Z,17.44
2016-07-06T06:23:06.221Z,17.41
2016-07-06T06:24:06.766Z,17.37
2016-07-06T06:25:06.822Z,17.26
2016-07-06T06:26:06.223Z,17.28
2016-07-06T06:27:06.221Z,17.37
2016-07-06T06:28:06.223Z,17.23
2016-07-06T06:29:06.217Z,17.28
2016-07-06T06:30:06.223Z,17.46
2016-07-06T06:31:06.212Z,17.55
2016-07-06T06:32:06.228Z,17.62
2016-07-06T06:33:06.218Z,17.64
2016-07-06T06:34:06.200Z,17.55
2016-07-06T06:35:06.216Z,17.62
2016-07-06T06:36:06.211Z,17.7
2016-07-06T06:37:06.228Z,17.63
2016-07-06T06:38:06.190Z,17.78
2016-07-06T06:39:06.208Z,17.77
2016-07-06T06:40:06.230Z,17.89
2016-07-06T06:41:06.208Z,18.07
2016-07-06T06:42:06.207Z,18.15
2016-07-06T06:43:06.211Z,18.3
2016-07-06T06:44:06.212Z,18.54
2016-07-06T06:45:06.218Z,18.7
2016-07-06T06:46:06.215Z,18.91
2016-07-06T06:47:06.207Z,19.28
2016-07-06T06:48:06.217Z,19.55
2016-07-06T06:49:06.223Z,19.87
2016-07-06T06:50:06.214Z,20.05
2016-07-06T06:51:06.230Z,20.18
2016-07-06T06:52:06.221Z,20.29
2016-07-06T06:53:06.833Z,20.47
2016-07-06T06:54:06.216Z,20.52
2016-07-06T06:55:06.227Z,20.55
2016-07-06T06:56:06.227Z,20.59
2016-07-06T06:57:06.215Z,20.54
2016-07-06T06:58:06.220Z,20.43
2016-07-06T06:59:06.242Z,20.36
2016-07-06T07:00:06.242Z,20.32
2016-07-06T07:01:06.246Z,20.18
2016-07-06T07:02:06.233Z,20.08
2016-07-06T07:03:06.250Z,19.83
2016-07-06T07:04:06.244Z,19.74
2016-07-06T07:05:06.256Z,19.61
2016-07-06T07:06:06.250Z,19.48
2016-07-06T07:07:06.248Z,19.31
2016-07-06T07:08:06.261Z,19.18
2016-07-06T07:09:06.851Z,19.04
2016-07-06T07:10:06.249Z,18.92
2016-07-06T07:11:06.253Z,18.88
2016-07-06T07:12:06.259Z,18.81
2016-07-06T07:13:06.267Z,18.88
2016-07-06T07:14:06.271Z,18.99
2016-07-06T07:15:06.253Z,19.19
2016-07-06T07:16:06.269Z,19.36
2016-07-06T07:17:09.634Z,19.73
2016-07-06T07:19:07.734Z,20.51
2016-07-06T07:20:06.284Z,20.97
2016-07-06T07:21:06.288Z,21.29
2016-07-06T07:22:06.299Z,21.44
2016-07-06T07:23:06.632Z,21.46
2016-07-06T07:24:06.302Z,21.34
2016-07-06T07:25:06.348Z,21.17
2016-07-06T07:26:07.719Z,21.16
2016-07-06T07:27:08.334Z,21.09
2016-07-06T07:28:07.269Z,21.12
2016-07-06T07:29:06.932Z,20.98
2016-07-06T07:30:06.852Z,20.95
2016-07-06T07:31:07.308Z,20.97
2016-07-06T07:33:06.635Z,21.17
2016-07-06T07:34:07.365Z,21.13
2016-07-06T07:35:07.209Z,21.35
2016-07-06T07:36:06.359Z,21.59
2016-07-06T07:37:06.751Z,21.94
2016-07-06T07:38:06.371Z,22.18
2016-07-06T07:39:06.369Z,22.51
2016-07-06T07:40:06.391Z,23.09
2016-07-06T07:41:06.493Z,23.63
2016-07-06T07:42:06.742Z,24.21
2016-07-06T07:43:06.500Z,24.31
2016-07-06T07:44:06.418Z,24.24
2016-07-06T07:45:06.425Z,24.4
2016-07-06T07:46:06.731Z,24.47
2016-07-06T07:47:06.430Z,24.61
2016-07-06T07:48:06.450Z,24.93
2016-07-06T07:49:06.456Z,25.28
2016-07-06T07:50:06.467Z,25.52
2016-07-06T07:51:06.467Z,25.67
2016-07-06T07:52:06.480Z,25.92
2016-07-06T07:53:06.495Z,26.01
2016-07-06T07:54:06.510Z,25.98
2016-07-06T07:55:06.508Z,25.99
2016-07-06T07:56:06.517Z,26.07
2016-07-06T07:57:06.539Z,26.25
2016-07-06T07:58:06.546Z,26.29
2016-07-06T07:59:06.566Z,26.21
2016-07-06T08:00:06.559Z,25.99
2016-07-06T08:01:06.554Z,25.85
2016-07-06T08:02:06.581Z,25.64
2016-07-06T08:03:06.588Z,25.3
2016-07-06T08:04:06.594Z,24.93
2016-07-06T08:05:06.615Z,24.83
2016-07-06T08:06:06.608Z,24.52
2016-07-06T08:07:06.626Z,24.1
2016-07-06T08:08:06.636Z,23.97
2016-07-06T08:09:06.636Z,23.75
2016-07-06T08:10:06.658Z,23.8
2016-07-06T08:11:06.670Z,23.69
2016-07-06T08:12:06.671Z,23.78
2016-07-06T08:13:06.670Z,23.51
2016-07-06T08:14:06.669Z,23.6
2016-07-06T08:15:06.676Z,23.69
2016-07-06T08:16:06.690Z,23.79
2016-07-06T08:17:06.693Z,24
2016-07-06T08:18:06.701Z,23.93
2016-07-06T08:19:06.701Z,24.09
2016-07-06T08:20:06.721Z,24.03
2016-07-06T08:21:06.725Z,24.05
2016-07-06T08:22:06.730Z,23.91
2016-07-06T08:23:07.350Z,23.95
2016-07-06T08:24:06.742Z,24.2
2016-07-06T08:25:07.369Z,24.4
2016-07-06T08:26:06.770Z,24.39
2016-07-06T08:27:06.777Z,24.28
2016-07-06T08:28:06.793Z,24.32
2016-07-06T08:29:06.794Z,24.15
2016-07-06T08:30:06.796Z,24.06
2016-07-06T08:31:06.810Z,23.88
2016-07-06T08:32:06.824Z,23.63
2016-07-06T08:33:06.817Z,23.69
2016-07-06T08:34:06.819Z,23.55
2016-07-06T08:36:07.253Z,23.5
2016-07-06T08:37:08.237Z,23.66
2016-07-06T08:38:07.515Z,23.79
2016-07-06T08:39:08.533Z,23.8
2016-07-06T08:40:06.906Z,23.91
2016-07-06T08:41:06.892Z,23.85
2016-07-06T08:42:07.007Z,24.03
2016-07-06T08:43:06.909Z,24.16
2016-07-06T08:44:07.893Z,24.42
2016-07-06T08:45:09.642Z,24.58
2016-07-06T08:46:07.559Z,24.65
2016-07-06T08:47:07.473Z,24.45
2016-07-06T08:48:06.958Z,24.18
2016-07-06T08:50:07.327Z,23.73
2016-07-06T08:51:07.147Z,23.55
2016-07-06T08:52:06.985Z,23.46
2016-07-06T08:53:07.044Z,23.28
2016-07-06T08:54:07.304Z,23.2
2016-07-06T08:55:07.031Z,23.25
2016-07-06T08:56:07.032Z,23.36
2016-07-06T08:57:07.043Z,23.51
2016-07-06T08:58:07.815Z,23.51
2016-07-06T08:59:22.051Z,23.28
2016-07-06T09:00:07.773Z,23.19
2016-07-06T09:01:07.373Z,23.04
2016-07-06T09:02:21.976Z,22.88
2016-07-06T09:03:07.087Z,22.8
2016-07-06T09:04:07.093Z,22.64
2016-07-06T09:05:07.099Z,22.61
2016-07-06T09:06:07.114Z,22.47
2016-07-06T09:07:07.109Z,22.35
2016-07-06T09:08:07.117Z,22.25
2016-07-06T09:09:07.128Z,22.07
2016-07-06T09:10:07.140Z,22.14
2016-07-06T09:11:07.136Z,22.28
2016-07-06T09:12:07.145Z,22.47
2016-07-06T09:13:07.155Z,22.61
2016-07-06T09:14:07.163Z,22.76
2016-07-06T09:15:07.163Z,22.8
2016-07-06T09:16:07.171Z,22.61
2016-07-06T09:17:07.173Z,22.6
2016-07-06T09:18:07.186Z,22.49
2016-07-06T09:19:07.199Z,22.42
2016-07-06T09:20:07.192Z,22.22
2016-07-06T09:21:07.194Z,22.09
2016-07-06T09:22:07.199Z,21.94
2016-07-06T09:23:07.199Z,21.84
2016-07-06T09:24:07.216Z,21.71
2016-07-06T09:25:07.819Z,21.68
2016-07-06T09:26:07.234Z,21.56
2016-07-06T09:27:07.230Z,21.52
2016-07-06T09:28:07.224Z,21.52
2016-07-06T09:29:07.236Z,21.49
2016-07-06T09:30:07.238Z,21.44
2016-07-06T09:31:07.244Z,21.49
2016-07-06T09:32:07.237Z,21.47
2016-07-06T09:33:07.242Z,21.59
2016-07-06T09:34:07.249Z,21.59
2016-07-06T09:35:07.254Z,21.58
2016-07-06T09:36:07.260Z,21.62
2016-07-06T09:37:07.258Z,21.56
2016-07-06T09:38:07.863Z,21.65
2016-07-06T09:39:07.258Z,21.65
2016-07-06T09:40:07.254Z,21.61
2016-07-06T09:41:07.261Z,21.67
2016-07-06T09:42:07.284Z,21.65
2016-07-06T09:43:07.279Z,21.69
2016-07-06T09:44:07.295Z,21.65
2016-07-06T09:45:07.290Z,21.64
2016-07-06T09:46:07.280Z,21.62
2016-07-06T09:47:07.291Z,21.59
2016-07-06T09:48:07.286Z,21.58
2016-07-06T09:49:07.305Z,21.35
2016-07-06T09:50:07.304Z,21.32
2016-07-06T09:51:07.299Z,21.16
2016-07-06T09:52:07.313Z,21.16
2016-07-06T09:54:08.312Z,21.16
2016-07-06T09:55:07.312Z,21.12
2016-07-06T09:56:07.548Z,21.17
2016-07-06T09:57:07.603Z,21.1
2016-07-06T09:58:07.328Z,21.13
2016-07-06T09:59:07.337Z,21.14
2016-07-06T10:00:07.326Z,21.19
2016-07-06T10:01:07.341Z,21.4
2016-07-06T10:02:08.837Z,21.4
2016-07-06T10:03:10.668Z,21.5
2016-07-06T10:04:09.596Z,21.5
2016-07-06T10:05:07.349Z,21.65
2016-07-06T10:06:07.970Z,21.77
2016-07-06T10:07:23.254Z,21.82
2016-07-06T10:09:07.761Z,21.8
2016-07-06T10:10:07.374Z,21.72
2016-07-06T10:11:07.370Z,21.71
2016-07-06T10:12:07.427Z,21.52
2016-07-06T10:13:07.389Z,21.46
2016-07-06T10:14:07.374Z,21.37
2016-07-06T10:15:07.373Z,21.32
2016-07-06T10:16:08.650Z,21.37
2016-07-06T10:17:07.855Z,21.37
2016-07-06T10:18:22.640Z,21.46
2016-07-06T10:19:07.757Z,21.49
2016-07-06T10:20:08.210Z,21.47
2016-07-06T10:21:07.419Z,21.38
2016-07-06T10:22:08.113Z,21.34
2016-07-06T10:23:07.418Z,21.21
2016-07-06T10:24:07.413Z,21.1
2016-07-06T10:25:07.422Z,21.28
2016-07-06T10:26:07.423Z,21.31
2016-07-06T10:27:07.419Z,21.44
2016-07-06T10:28:07.418Z,21.61
2016-07-06T10:29:07.442Z,21.84
2016-07-06T10:30:07.438Z,22.05
2016-07-06T10:31:07.445Z,22.3
2016-07-06T10:32:07.442Z,22.37
2016-07-06T10:33:07.442Z,22.61
2016-07-06T10:34:07.457Z,22.77
2016-07-06T10:35:07.458Z,22.86
2016-07-06T10:36:07.464Z,22.82
2016-07-06T10:37:07.463Z,22.65
2016-07-06T10:38:07.465Z,22.47
2016-07-06T10:39:07.470Z,22.39
2016-07-06T10:40:07.476Z,22.31
2016-07-06T10:41:07.476Z,22.45
2016-07-06T10:42:07.482Z,22.47
2016-07-06T10:43:07.490Z,22.43
2016-07-06T10:44:07.490Z,22.51
2016-07-06T10:45:07.497Z,22.68
2016-07-06T10:46:07.494Z,22.75
2016-07-06T10:47:07.506Z,22.82
2016-07-06T10:48:07.502Z,22.77
2016-07-06T10:49:07.509Z,22.67
2016-07-06T10:50:08.127Z,22.49
2016-07-06T10:51:07.518Z,22.39
2016-07-06T10:52:07.511Z,22.2
2016-07-06T10:53:07.523Z,22.1
2016-07-06T10:54:07.532Z,22.02
2016-07-06T10:55:07.533Z,21.86
2016-07-06T10:56:11.505Z,21.79
2016-07-06T10:57:07.547Z,21.62
2016-07-06T10:58:07.539Z,21.64
2016-07-06T10:59:08.808Z,21.67
2016-07-06T11:00:07.547Z,21.65
2016-07-06T11:01:07.547Z,21.74
2016-07-06T11:02:07.557Z,21.86
2016-07-06T11:03:07.564Z,21.91
2016-07-06T11:04:07.561Z,22.05
2016-07-06T11:05:07.570Z,22.14
2016-07-06T11:06:07.570Z,22.24
2016-07-06T11:07:07.570Z,22.22
2016-07-06T11:08:07.576Z,22.25
2016-07-06T11:09:07.582Z,22.07
2016-07-06T11:10:07.582Z,22.05
2016-07-06T11:11:07.584Z,21.8
2016-07-06T11:12:09.007Z,21.44
2016-07-06T11:13:08.753Z,21.29
2016-07-06T11:14:08.345Z,21.17
2016-07-06T11:15:08.532Z,20.99
2016-07-06T11:16:08.455Z,20.89
2016-07-06T11:17:07.860Z,20.82
2016-07-06T11:18:07.601Z,20.89
2016-07-06T11:19:07.611Z,20.92
2016-07-06T11:20:07.629Z,21.03
2016-07-06T11:22:07.753Z,21.14
2016-07-06T11:23:07.949Z,21.28
2016-07-06T11:24:08.664Z,21.44
2016-07-06T11:25:07.625Z,21.54
2016-07-06T11:26:08.075Z,21.67
2016-07-06T11:27:07.873Z,21.82
2016-07-06T11:28:08.239Z,21.91
2016-07-06T11:29:07.634Z,21.91
2016-07-06T11:30:07.635Z,22.05
2016-07-06T11:31:07.794Z,22.07
2016-07-06T11:32:07.618Z,22.15
2016-07-06T11:33:07.637Z,22.1
2016-07-06T11:34:07.642Z,22.03
2016-07-06T11:35:22.543Z,21.96
2016-07-06T11:36:07.860Z,21.86
2016-07-06T11:37:08.200Z,21.65
2016-07-06T11:39:07.761Z,21.4
2016-07-06T11:40:07.673Z,21.25
2016-07-06T11:41:08.117Z,21.22
2016-07-06T11:42:07.656Z,21.14
2016-07-06T11:43:07.673Z,21.06
2016-07-06T11:44:07.659Z,20.91
2016-07-06T11:45:07.688Z,20.82
2016-07-06T11:46:07.679Z,20.76
2016-07-06T11:47:07.675Z,20.66
2016-07-06T11:48:07.669Z,20.61
2016-07-06T11:49:07.675Z,20.55
2016-07-06T11:50:07.679Z,20.52
2016-07-06T11:51:07.679Z,20.47
2016-07-06T11:52:07.683Z,20.38
2016-07-06T11:53:07.689Z,20.41
2016-07-06T11:54:07.689Z,20.38
2016-07-06T11:55:07.692Z,20.54
2016-07-06T11:56:07.691Z,20.55
2016-07-06T11:57:07.696Z,20.55
2016-07-06T11:58:07.694Z,20.57
2016-07-06T11:59:07.693Z,20.55
2016-07-06T12:00:07.695Z,20.54
2016-07-06T12:01:07.706Z,20.67
2016-07-06T12:02:07.697Z,20.66
2016-07-06T12:03:07.714Z,20.77
2016-07-06T12:04:08.309Z,20.89
2016-07-06T12:05:22.664Z,21.12
2016-07-06T12:06:07.712Z,21.14
2016-07-06T12:07:07.724Z,21.29
2016-07-06T12:08:07.734Z,21.37
2016-07-06T12:09:07.721Z,21.46
2016-07-06T12:10:07.727Z,21.59
2016-07-06T12:11:07.742Z,21.77
2016-07-06T12:12:07.739Z,21.88
2016-07-06T12:13:07.741Z,22.03
2016-07-06T12:14:07.741Z,22.05
2016-07-06T12:15:07.739Z,21.99
2016-07-06T12:16:07.734Z,22
2016-07-06T12:17:07.731Z,21.98
2016-07-06T12:18:07.748Z,21.98
2016-07-06T12:19:07.746Z,22
2016-07-06T12:20:07.748Z,22.02
2016-07-06T12:21:07.748Z,22.06
2016-07-06T12:22:07.757Z,22.1
2016-07-06T12:23:07.770Z,22.14
2016-07-06T12:24:07.755Z,22.18
2016-07-06T12:25:07.749Z,22.28
2016-07-06T12:26:22.714Z,22.22
2016-07-06T12:27:07.769Z,22.36
2016-07-06T12:28:07.776Z,22.52
2016-07-06T12:29:07.782Z,22.47
2016-07-06T12:30:09.487Z,22.6
2016-07-06T12:31:08.381Z,22.61
2016-07-06T12:32:07.781Z,22.6
2016-07-06T12:33:07.784Z,22.57
2016-07-06T12:34:08.079Z,22.6
2016-07-06T12:35:08.515Z,22.61
2016-07-06T12:36:07.879Z,22.58
2016-07-06T12:37:07.790Z,22.51
2016-07-06T12:38:07.809Z,22.57
2016-07-06T12:39:09.316Z,22.62
2016-07-06T12:40:09.305Z,22.64
2016-07-06T12:41:10.588Z,22.64
2016-07-06T12:42:10.152Z,22.62
2016-07-06T12:43:08.590Z,22.61
2016-07-06T12:44:09.501Z,22.6
2016-07-06T12:45:08.277Z,22.49
2016-07-06T12:46:22.927Z,22.49
2016-07-06T12:47:07.885Z,22.49
2016-07-06T12:48:08.221Z,22.51
2016-07-06T12:49:22.823Z,22.46
2016-07-06T12:50:07.886Z,22.36
2016-07-06T12:51:07.843Z,22.37
2016-07-06T12:52:07.844Z,22.43
2016-07-06T12:53:09.003Z,22.49
2016-07-06T12:54:08.951Z,22.54
2016-07-06T12:55:08.304Z,22.57
2016-07-06T12:56:22.755Z,22.57
2016-07-06T12:57:07.966Z,22.54
2016-07-06T12:58:08.157Z,22.55
2016-07-06T12:59:07.971Z,22.54
2016-07-06T13:00:07.862Z,22.6
2016-07-06T13:01:07.860Z,22.72
2016-07-06T13:02:07.884Z,22.73
2016-07-06T13:03:07.863Z,22.79
2016-07-06T13:04:07.880Z,22.91
2016-07-06T13:05:07.890Z,22.9
2016-07-06T13:06:07.891Z,22.91
2016-07-06T13:07:07.901Z,23.01
2016-07-06T13:08:07.877Z,23.2
2016-07-06T13:09:07.899Z,23.23
2016-07-06T13:10:07.899Z,23.32